^^
Saratoga-Weather Station Historical Data
Daily Summary for July 26, 2021 Units:  English    Metric   Both
Daily Weekly Monthly Yearly Custom
  High: Low: Average:
Temperature: 61.9 °F 58.1 °F 60.3 °F
Dew Point: 60.8 °F 57.2 °F 59.4 °F
Humidity: 97% 96% 97%
Wind Speed: 0mph 0mph 0mph
Wind Gust: 0mph - -
Wind- -
Pressure: 29.8 in 29.8 in -
Precipitation: 0 in    
Historical Graphs
 
 
Tabular Data for July 26, 2021
Time Temperature Dew Point Pressure Wind Wind Speed Wind Gust Humidity Rainfall Rate (Hourly) solar
00:00 61.9 °F 60.8 °F 29.8 in Calm     96% 0 in 0 W/m2
00:05 61.9 °F 60.8 °F 29.8 in Calm     96% 0 in 0 W/m2
00:10 61.9 °F 60.8 °F 29.8 in Calm     96% 0 in 0 W/m2
00:15 61.5 °F 60.4 °F 29.8 in Calm     96% 0 in 0 W/m2
00:20 61.5 °F 60.4 °F 29.8 in Calm     96% 0 in 0 W/m2
00:41 61.5 °F 60.4 °F 29.8 in Calm     96% 0 in 0 W/m2
00:46 61.5 °F 60.4 °F 29.8 in Calm     96% 0 in 0 W/m2
00:51 61.5 °F 60.4 °F 29.8 in Calm     96% 0 in 0 W/m2
00:56 61.5 °F 60.4 °F 29.8 in Calm     96% 0 in 0 W/m2
01:01 61.5 °F 60.4 °F 29.8 in Calm     96% 0 in 0 W/m2
01:06 61.3 °F 60.3 °F 29.8 in Calm     96% 0 in 0 W/m2
01:11 61.3 °F 60.3 °F 29.8 in Calm     96% 0 in 0 W/m2
01:16 61.3 °F 60.3 °F 29.8 in Calm     96% 0 in 0 W/m2
01:22 61.3 °F 60.4 °F 29.8 in Calm     97% 0 in 0 W/m2
01:27 61.2 °F 60.3 °F 29.8 in Calm     97% 0 in 0 W/m2
01:32 61.2 °F 60.3 °F 29.8 in Calm     97% 0 in 0 W/m2
01:37 61.2 °F 60.3 °F 29.8 in Calm     97% 0 in 0 W/m2
01:42 61.2 °F 60.1 °F 29.8 in Calm     96% 0 in 0 W/m2
01:47 61.2 °F 60.3 °F 29.8 in Calm     97% 0 in 0 W/m2
01:52 61.3 °F 60.4 °F 29.8 in Calm     97% 0 in 0 W/m2
01:57 61.3 °F 60.4 °F 29.8 in Calm     97% 0 in 0 W/m2
02:14 61.2 °F 60.3 °F 29.8 in Calm     97% 0 in 0 W/m2
02:19 61.2 °F 60.3 °F 29.8 in Calm     97% 0 in 0 W/m2
02:24 61 °F 60.1 °F 29.8 in Calm     97% 0 in 0 W/m2
02:29 61 °F 60.1 °F 29.8 in Calm     97% 0 in 0 W/m2
02:34 61 °F 60.1 °F 29.8 in Calm     97% 0 in 0 W/m2
02:39 61 °F 60.1 °F 29.8 in Calm     97% 0 in 0 W/m2
02:44 60.8 °F 59.9 °F 29.8 in Calm     97% 0 in 0 W/m2
02:49 60.6 °F 59.7 °F 29.8 in Calm     97% 0 in 0 W/m2
02:54 60.6 °F 59.7 °F 29.8 in Calm     97% 0 in 0 W/m2
02:59 60.4 °F 59.4 °F 29.8 in Calm     96% 0 in 0 W/m2
03:04 60.4 °F 59.5 °F 29.8 in Calm     97% 0 in 0 W/m2
03:09 60.3 °F 59.4 °F 29.8 in Calm     97% 0 in 0 W/m2
03:25 59.9 °F 59 °F 29.8 in Calm     97% 0 in 0 W/m2
03:30 59.7 °F 58.8 °F 29.8 in Calm     97% 0 in 0 W/m2
03:35 59.7 °F 58.8 °F 29.8 in Calm     97% 0 in 0 W/m2
03:40 59.7 °F 58.8 °F 29.8 in Calm     97% 0 in 0 W/m2
03:45 59.5 °F 58.6 °F 29.8 in Calm     97% 0 in 0 W/m2
03:50 59.5 °F 58.6 °F 29.8 in Calm     97% 0 in 0 W/m2
03:55 59.4 °F 58.5 °F 29.8 in Calm     97% 0 in 0 W/m2
04:00 59.4 °F 58.5 °F 29.8 in Calm     97% 0 in 0 W/m2
04:05 59.2 °F 58.3 °F 29.8 in Calm     97% 0 in 0 W/m2
04:10 59.2 °F 58.3 °F 29.8 in Calm     97% 0 in 0 W/m2
04:15 59.4 °F 58.5 °F 29.8 in Calm     97% 0 in 0 W/m2
04:20 59.4 °F 58.5 °F 29.8 in Calm     97% 0 in 0 W/m2
04:25 59.4 °F 58.5 °F 29.8 in Calm     97% 0 in 0 W/m2
04:30 59.4 °F 58.5 °F 29.8 in Calm     97% 0 in 0 W/m2
04:35 59.4 °F 58.5 °F 29.8 in Calm     97% 0 in 0 W/m2
04:40 59.2 °F 58.3 °F 29.8 in Calm     97% 0 in 0 W/m2
04:45 59 °F 58.1 °F 29.8 in Calm     97% 0 in 0 W/m2
04:50 58.8 °F 57.9 °F 29.8 in Calm     97% 0 in 0 W/m2
04:55 58.6 °F 57.7 °F 29.8 in Calm     97% 0 in 0 W/m2
05:00 58.6 °F 57.7 °F 29.8 in Calm     97% 0 in 0 W/m2
05:05 58.5 °F 57.6 °F 29.8 in Calm     97% 0 in 0 W/m2
05:10 58.5 °F 57.6 °F 29.8 in Calm     97% 0 in 0 W/m2
05:15 58.5 °F 57.6 °F 29.8 in Calm     97% 0 in 0 W/m2
05:20 58.3 °F 57.4 °F 29.8 in Calm     97% 0 in 0 W/m2
05:25 58.3 °F 57.4 °F 29.8 in Calm     97% 0 in 0 W/m2
05:30 58.1 °F 57.2 °F 29.8 in Calm     97% 0 in 0 W/m2
05:35 58.1 °F 57.2 °F 29.8 in Calm     97% 0 in 0 W/m2
Juneau County Weather
Compliments of Weather Underground - 2 mb